createdAt,value
2023-12-09T00:01:23.401Z,3.90
2023-12-09T00:03:51.408Z,3.90
2023-12-09T00:06:21.228Z,3.90
2023-12-09T00:08:51.736Z,3.90
2023-12-09T00:11:20.196Z,3.90
2023-12-09T00:13:48.578Z,3.90
2023-12-09T00:16:16.588Z,3.90
2023-12-09T00:18:44.668Z,3.90
2023-12-09T00:21:13.007Z,3.90
2023-12-09T00:23:47.444Z,3.90
2023-12-09T00:26:18.415Z,4.00
2023-12-09T00:28:48.111Z,3.90
2023-12-09T00:31:16.448Z,3.90
2023-12-09T00:33:45.260Z,3.90
2023-12-09T00:36:13.881Z,4.00
2023-12-09T00:38:42.056Z,4.00
2023-12-09T00:41:11.956Z,4.00
2023-12-09T00:43:41.747Z,4.00
2023-12-09T00:46:09.726Z,4.00
2023-12-09T00:48:37.760Z,4.00
2023-12-09T00:51:07.189Z,4.00
2023-12-09T00:53:35.223Z,4.00
2023-12-09T00:56:03.374Z,4.00
2023-12-09T00:58:31.333Z,4.00
2023-12-09T01:01:01.002Z,4.00
2023-12-09T01:03:29.027Z,4.00
2023-12-09T01:05:57.554Z,4.00
2023-12-09T01:08:27.223Z,4.00
2023-12-09T01:10:55.917Z,4.00
2023-12-09T01:13:24.124Z,4.00
2023-12-09T01:15:52.513Z,4.00
2023-12-09T01:18:22.064Z,4.00
2023-12-09T01:20:50.529Z,4.00
2023-12-09T01:23:19.394Z,4.00
2023-12-09T01:25:47.395Z,4.00
2023-12-09T01:28:15.314Z,4.00
2023-12-09T01:30:43.347Z,4.00
2023-12-09T01:33:11.787Z,4.10
2023-12-09T01:35:41.311Z,4.10
2023-12-09T01:38:10.219Z,4.10
2023-12-09T01:40:38.345Z,4.10
2023-12-09T01:43:10.686Z,4.10
2023-12-09T01:45:39.074Z,4.10
2023-12-09T01:48:09.670Z,4.10
2023-12-09T01:50:38.522Z,4.10
2023-12-09T01:53:08.325Z,4.10
2023-12-09T01:55:36.759Z,4.10
2023-12-09T01:58:05.130Z,4.10
2023-12-09T02:00:33.603Z,4.10
2023-12-09T02:03:01.743Z,4.10
2023-12-09T02:05:29.751Z,4.10
2023-12-09T02:07:58.436Z,4.10
2023-12-09T02:10:28.597Z,4.10
2023-12-09T02:13:03.000Z,4.10
2023-12-09T02:15:41.207Z,4.10
2023-12-09T02:18:12.642Z,4.20
2023-12-09T02:20:40.737Z,4.20
2023-12-09T02:23:10.421Z,4.10
2023-12-09T02:25:40.107Z,4.20
2023-12-09T02:28:14.690Z,4.20
2023-12-09T02:30:51.298Z,4.20
2023-12-09T02:33:20.938Z,4.20
2023-12-09T02:35:51.595Z,4.20
2023-12-09T02:38:22.356Z,4.10
2023-12-09T02:40:53.292Z,4.20
2023-12-09T02:43:21.770Z,4.10
2023-12-09T02:45:50.029Z,4.20
2023-12-09T02:48:18.472Z,4.20
2023-12-09T02:50:47.301Z,4.20
2023-12-09T02:53:15.659Z,4.20
2023-12-09T02:55:45.182Z,4.20
2023-12-09T02:58:14.239Z,4.20
2023-12-09T03:00:42.581Z,4.20
2023-12-09T03:03:10.178Z,4.20
2023-12-09T03:05:38.186Z,4.20
2023-12-09T03:08:05.287Z,4.20
2023-12-09T03:10:34.121Z,4.20
2023-12-09T03:13:03.797Z,4.20
2023-12-09T03:15:32.062Z,4.20
2023-12-09T03:18:00.503Z,4.20
2023-12-09T03:20:28.566Z,4.20
2023-12-09T03:22:56.459Z,4.20
2023-12-09T03:25:24.650Z,4.20
2023-12-09T03:27:54.325Z,4.20
2023-12-09T03:30:24.089Z,4.20
2023-12-09T03:32:52.143Z,4.20
2023-12-09T03:35:20.579Z,4.20
2023-12-09T03:37:48.755Z,4.20
2023-12-09T03:40:17.372Z,4.20
2023-12-09T03:42:45.544Z,4.20
2023-12-09T03:45:13.674Z,4.20
2023-12-09T03:47:43.148Z,4.20
2023-12-09T03:50:11.931Z,4.20
2023-12-09T03:52:41.040Z,4.30
2023-12-09T03:55:11.519Z,4.30
2023-12-09T03:57:39.711Z,4.20
2023-12-09T04:00:10.542Z,4.30
2023-12-09T04:02:38.721Z,4.30
2023-12-09T04:05:11.854Z,4.40
2023-12-09T04:07:39.794Z,4.30
2023-12-09T04:10:10.494Z,4.30
2023-12-09T04:12:38.725Z,4.20
2023-12-09T04:15:08.207Z,4.30
2023-12-09T04:17:36.424Z,4.30
2023-12-09T04:20:05.901Z,4.30
2023-12-09T04:22:35.856Z,4.30
2023-12-09T04:25:06.423Z,4.30
2023-12-09T04:27:34.584Z,4.30
2023-12-09T04:30:04.567Z,4.30
2023-12-09T04:32:33.143Z,4.30
2023-12-09T04:35:02.000Z,4.30
2023-12-09T04:37:30.155Z,4.30
2023-12-09T04:39:59.457Z,4.30
2023-12-09T04:42:28.344Z,4.30
2023-12-09T04:44:57.061Z,4.30
2023-12-09T04:47:26.144Z,4.30
2023-12-09T04:49:54.399Z,4.40
2023-12-09T04:52:22.466Z,4.40
2023-12-09T04:54:50.848Z,4.40
2023-12-09T04:57:20.375Z,4.40
2023-12-09T04:59:48.315Z,4.40
2023-12-09T05:02:16.331Z,4.40
2023-12-09T05:04:44.569Z,4.40
2023-12-09T05:07:14.197Z,4.50
2023-12-09T05:09:42.902Z,4.40
2023-12-09T05:12:11.653Z,4.50
2023-12-09T05:14:41.279Z,4.40
2023-12-09T05:17:09.457Z,4.50
2023-12-09T05:19:37.713Z,4.50
2023-12-09T05:22:06.266Z,4.40
2023-12-09T05:24:34.484Z,4.50
2023-12-09T05:27:02.677Z,4.50
2023-12-09T05:29:30.930Z,4.50
2023-12-09T05:32:00.709Z,4.50
2023-12-09T05:34:28.876Z,4.50
2023-12-09T05:36:56.939Z,4.50
2023-12-09T05:39:27.306Z,4.50
2023-12-09T05:41:55.282Z,4.50
2023-12-09T05:44:23.680Z,4.50
2023-12-09T05:46:52.791Z,4.50
2023-12-09T05:49:22.494Z,4.50
2023-12-09T05:51:50.983Z,4.50
2023-12-09T05:54:19.495Z,4.60
2023-12-09T05:56:51.433Z,4.60
2023-12-09T05:59:19.398Z,4.50
2023-12-09T06:01:47.596Z,4.50
2023-12-09T06:04:16.232Z,4.60
2023-12-09T06:06:46.113Z,4.40
2023-12-09T06:09:14.567Z,4.60
2023-12-09T06:11:42.545Z,4.60
2023-12-09T06:14:10.551Z,4.50
2023-12-09T06:16:38.943Z,4.50
2023-12-09T06:19:06.835Z,4.50
2023-12-09T06:21:35.269Z,4.60
2023-12-09T06:24:05.833Z,4.60
2023-12-09T06:26:34.234Z,4.60
2023-12-09T06:29:02.245Z,4.60
2023-12-09T06:31:31.437Z,4.50
2023-12-09T06:33:59.745Z,4.60
2023-12-09T06:36:28.112Z,4.40
2023-12-09T06:38:56.088Z,4.50
2023-12-09T06:41:25.755Z,4.60
2023-12-09T06:43:54.446Z,4.50
2023-12-09T06:46:22.926Z,4.50
2023-12-09T06:48:51.125Z,4.50
2023-12-09T06:51:19.652Z,4.50
2023-12-09T06:53:47.861Z,4.50
2023-12-09T06:56:22.188Z,4.50
2023-12-09T06:58:52.693Z,4.50
2023-12-09T07:01:22.413Z,4.50
2023-12-09T07:03:51.331Z,4.50
2023-12-09T07:06:23.191Z,4.50
2023-12-09T07:08:52.251Z,4.50
2023-12-09T07:11:20.619Z,4.50
2023-12-09T07:13:49.837Z,4.50
2023-12-09T07:16:19.629Z,4.50
2023-12-09T07:18:48.953Z,4.50
2023-12-09T07:21:18.002Z,4.50
2023-12-09T07:23:46.724Z,4.50
2023-12-09T07:26:15.325Z,4.50
2023-12-09T07:28:43.288Z,4.50
2023-12-09T07:31:11.692Z,4.50
2023-12-09T07:33:41.542Z,4.50
2023-12-09T07:36:10.571Z,4.50
2023-12-09T07:38:38.545Z,4.50
2023-12-09T07:41:07.703Z,4.50
2023-12-09T07:43:37.857Z,4.60
2023-12-09T07:46:08.072Z,4.50
2023-12-09T07:48:36.362Z,4.50
2023-12-09T07:51:06.598Z,4.50
2023-12-09T07:53:35.057Z,4.50
2023-12-09T07:56:03.006Z,4.50
2023-12-09T07:58:31.223Z,4.50
2023-12-09T08:01:01.638Z,4.50
2023-12-09T08:03:32.269Z,4.50
2023-12-09T08:06:00.718Z,4.60
2023-12-09T08:08:30.122Z,4.60
2023-12-09T08:11:00.276Z,4.60
2023-12-09T08:13:28.158Z,4.60
2023-12-09T08:15:56.144Z,4.70
2023-12-09T08:18:24.235Z,4.60
2023-12-09T08:20:52.638Z,4.70
2023-12-09T08:23:20.963Z,4.60
2023-12-09T08:25:51.251Z,4.70
2023-12-09T08:28:19.613Z,4.70
2023-12-09T08:30:48.185Z,4.70
2023-12-09T08:33:16.760Z,4.80
2023-12-09T08:35:44.982Z,4.70
2023-12-09T08:38:13.181Z,5.80
2023-12-09T08:40:41.112Z,4.80
2023-12-09T08:43:10.672Z,4.90
2023-12-09T08:45:38.927Z,4.80
2023-12-09T08:48:08.322Z,4.90
2023-12-09T08:50:37.345Z,4.90
2023-12-09T08:53:05.716Z,4.90
2023-12-09T08:55:35.703Z,5.00
2023-12-09T08:58:04.392Z,4.90
2023-12-09T09:00:34.137Z,5.00
2023-12-09T09:03:04.818Z,5.00
2023-12-09T09:05:33.050Z,5.00
2023-12-09T09:08:01.245Z,5.00
2023-12-09T09:10:29.564Z,5.10
2023-12-09T09:12:57.882Z,5.10
2023-12-09T09:15:26.132Z,5.10
2023-12-09T09:17:55.622Z,5.10
2023-12-09T09:20:24.499Z,5.10
2023-12-09T09:22:52.436Z,5.10
2023-12-09T09:25:20.299Z,5.10
2023-12-09T09:27:52.725Z,5.10
2023-12-09T09:30:23.584Z,5.20
2023-12-09T09:32:52.735Z,5.20
2023-12-09T09:35:24.556Z,5.20
2023-12-09T09:37:52.695Z,5.20
2023-12-09T09:40:21.972Z,5.30
2023-12-09T09:42:55.747Z,5.30
2023-12-09T09:45:28.831Z,5.30
2023-12-09T09:48:05.968Z,5.40
2023-12-09T09:50:44.055Z,5.40
2023-12-09T09:53:15.103Z,5.40
2023-12-09T09:55:43.518Z,5.40
2023-12-09T09:58:12.376Z,5.40
2023-12-09T10:00:40.808Z,5.40
2023-12-09T10:03:08.906Z,5.40
2023-12-09T10:05:38.356Z,5.40
2023-12-09T10:08:09.033Z,5.40
2023-12-09T10:10:46.347Z,5.40
2023-12-09T10:13:15.341Z,5.40
2023-12-09T10:15:52.199Z,5.40
2023-12-09T10:18:23.665Z,5.50
2023-12-09T10:20:53.422Z,5.50
2023-12-09T10:23:23.587Z,5.50
2023-12-09T10:25:51.810Z,5.50
2023-12-09T10:28:27.404Z,5.50
2023-12-09T10:30:55.613Z,5.60
2023-12-09T10:33:25.314Z,5.60
2023-12-09T10:35:55.316Z,5.60
2023-12-09T10:38:23.267Z,5.60
2023-12-09T10:40:51.501Z,5.50
2023-12-09T10:43:19.867Z,5.50
2023-12-09T10:45:48.047Z,5.50
2023-12-09T10:48:16.335Z,5.50
2023-12-09T10:50:47.589Z,5.60
2023-12-09T10:53:17.581Z,5.50
2023-12-09T10:55:45.582Z,5.50
2023-12-09T10:58:16.160Z,5.60
2023-12-09T11:00:45.034Z,5.60
2023-12-09T11:03:17.336Z,5.60
2023-12-09T11:05:48.129Z,5.70
2023-12-09T11:08:18.290Z,5.70
2023-12-09T11:10:47.221Z,5.70
2023-12-09T11:13:15.692Z,5.70
2023-12-09T11:15:44.669Z,5.70
2023-12-09T11:18:17.679Z,5.70
2023-12-09T11:20:47.300Z,5.70
2023-12-09T11:23:17.269Z,5.80
2023-12-09T11:25:45.228Z,5.80
2023-12-09T11:28:14.240Z,5.80
2023-12-09T11:30:47.700Z,5.80
2023-12-09T11:33:16.322Z,5.80
2023-12-09T11:35:48.493Z,5.80
2023-12-09T11:38:18.979Z,5.90
2023-12-09T11:40:47.801Z,5.90
2023-12-09T11:43:18.433Z,5.90
2023-12-09T11:45:46.632Z,5.90
2023-12-09T11:48:15.241Z,5.90
2023-12-09T11:50:43.932Z,5.90
2023-12-09T11:53:12.151Z,6.00
2023-12-09T11:55:41.794Z,6.00
2023-12-09T11:58:11.309Z,6.00
2023-12-09T12:00:39.362Z,6.00
2023-12-09T12:03:07.880Z,6.00
2023-12-09T12:05:37.366Z,6.10
2023-12-09T12:08:06.465Z,6.10
2023-12-09T12:10:37.124Z,6.20
2023-12-09T12:13:08.013Z,6.20
2023-12-09T12:15:36.351Z,6.30
2023-12-09T12:18:04.923Z,6.30
2023-12-09T12:20:33.182Z,6.30
2023-12-09T12:23:01.307Z,6.30
2023-12-09T12:25:31.635Z,6.40
2023-12-09T12:28:00.125Z,6.40
2023-12-09T12:30:30.090Z,6.50
2023-12-09T12:32:58.788Z,6.50
2023-12-09T12:35:27.564Z,6.50
2023-12-09T12:37:58.065Z,6.50
2023-12-09T12:40:28.132Z,6.60
2023-12-09T12:42:56.437Z,6.60
2023-12-09T12:45:28.863Z,6.70
2023-12-09T12:47:58.895Z,6.80
2023-12-09T12:50:27.261Z,6.90
2023-12-09T12:52:56.281Z,7.20
2023-12-09T12:55:24.999Z,7.60
2023-12-09T12:57:54.314Z,8.10
2023-12-09T13:00:24.720Z,8.50
2023-12-09T13:02:52.626Z,8.90
2023-12-09T13:05:22.254Z,9.20
2023-12-09T13:07:50.498Z,9.50
2023-12-09T13:10:18.696Z,9.70
2023-12-09T13:12:46.980Z,9.80
2023-12-09T13:15:16.504Z,9.90
2023-12-09T13:17:45.596Z,9.80
2023-12-09T13:20:14.556Z,9.70
2023-12-09T13:22:46.544Z,9.60
2023-12-09T13:25:15.348Z,9.40
2023-12-09T13:27:44.692Z,9.50
2023-12-09T13:30:17.892Z,9.50
2023-12-09T13:32:47.218Z,9.60
2023-12-09T13:35:16.324Z,9.50
2023-12-09T13:37:46.385Z,9.40
2023-12-09T13:40:15.494Z,9.30
2023-12-09T13:42:43.723Z,9.30
2023-12-09T13:45:14.837Z,9.20
2023-12-09T13:47:45.682Z,9.10
2023-12-09T13:50:14.057Z,8.90
2023-12-09T13:52:42.773Z,8.70
2023-12-09T13:55:12.640Z,8.50
2023-12-09T13:57:42.109Z,8.40
2023-12-09T14:00:14.380Z,8.20
2023-12-09T14:02:44.535Z,8.00
2023-12-09T14:05:15.432Z,7.90
2023-12-09T14:07:44.468Z,7.90
2023-12-09T14:10:15.375Z,7.80
2023-12-09T14:12:45.599Z,7.80
2023-12-09T14:15:14.251Z,7.70
2023-12-09T14:17:44.760Z,7.70
2023-12-09T14:20:16.365Z,7.80
2023-12-09T14:22:46.894Z,7.80
2023-12-09T14:25:16.728Z,7.90
2023-12-09T14:27:45.091Z,7.90
2023-12-09T14:30:13.962Z,8.00
2023-12-09T14:32:45.816Z,8.00
2023-12-09T14:35:15.897Z,8.00
2023-12-09T14:37:49.151Z,7.90
2023-12-09T14:40:20.002Z,7.80
2023-12-09T14:42:48.328Z,7.70
2023-12-09T14:45:16.914Z,7.60
2023-12-09T14:47:50.745Z,7.60
2023-12-09T14:50:26.160Z,7.50
2023-12-09T14:52:54.330Z,7.30
2023-12-09T14:55:23.813Z,7.30
2023-12-09T14:57:52.952Z,7.20
2023-12-09T15:00:21.584Z,7.20
2023-12-09T15:02:51.795Z,7.10
2023-12-09T15:05:20.003Z,7.00
2023-12-09T15:07:48.382Z,6.90
2023-12-09T15:10:16.996Z,6.90
2023-12-09T15:12:48.874Z,6.80
2023-12-09T15:15:17.886Z,6.70
2023-12-09T15:17:46.869Z,6.70
2023-12-09T15:20:16.097Z,6.70
2023-12-09T15:22:45.256Z,6.60
2023-12-09T15:25:17.015Z,6.60
2023-12-09T15:27:46.966Z,6.60
2023-12-09T15:30:16.138Z,6.50
2023-12-09T15:32:45.430Z,6.50
2023-12-09T15:35:13.927Z,6.40
2023-12-09T15:37:42.139Z,6.40
2023-12-09T15:40:12.003Z,6.30
2023-12-09T15:42:40.437Z,6.30
2023-12-09T15:45:11.401Z,6.30
2023-12-09T15:47:40.013Z,6.30
2023-12-09T15:50:11.219Z,6.20
2023-12-09T15:52:39.187Z,6.20
2023-12-09T15:55:07.675Z,6.20
2023-12-09T15:57:38.174Z,6.20
2023-12-09T16:00:07.505Z,6.20
2023-12-09T16:02:36.994Z,6.10
2023-12-09T16:05:06.346Z,6.10
2023-12-09T16:07:35.148Z,6.10
2023-12-09T16:10:02.785Z,6.10
2023-12-09T16:12:31.299Z,6.10
2023-12-09T16:15:01.791Z,6.10
2023-12-09T16:17:31.910Z,6.00
2023-12-09T16:20:03.564Z,6.00
2023-12-09T16:22:31.882Z,6.00
2023-12-09T16:25:00.553Z,6.00
2023-12-09T16:27:29.389Z,6.00
2023-12-09T16:29:57.583Z,6.00
2023-12-09T16:32:26.985Z,6.00
2023-12-09T16:34:55.269Z,6.00
2023-12-09T16:37:25.936Z,6.00
2023-12-09T16:39:53.998Z,5.90
2023-12-09T16:42:22.391Z,5.90
2023-12-09T16:44:50.543Z,5.90
2023-12-09T16:47:18.787Z,5.90
2023-12-09T16:49:47.013Z,5.90
2023-12-09T16:52:15.200Z,5.90
2023-12-09T16:54:44.992Z,5.90
2023-12-09T16:57:16.116Z,5.90
2023-12-09T16:59:44.370Z,5.90
2023-12-09T17:02:12.295Z,5.90
2023-12-09T17:04:40.294Z,5.90
2023-12-09T17:07:08.263Z,5.90
2023-12-09T17:09:36.443Z,5.80
2023-12-09T17:12:06.622Z,5.80
2023-12-09T17:14:36.742Z,5.80
2023-12-09T17:17:05.381Z,5.80
2023-12-09T17:19:33.528Z,5.80
2023-12-09T17:22:02.186Z,5.80
2023-12-09T17:24:32.000Z,5.80
2023-12-09T17:27:00.066Z,5.80
2023-12-09T17:29:29.282Z,5.80
2023-12-09T17:31:57.451Z,5.80
2023-12-09T17:34:25.722Z,5.80
2023-12-09T17:36:54.097Z,5.80
2023-12-09T17:39:22.034Z,5.80
2023-12-09T17:41:51.479Z,5.70
2023-12-09T17:44:22.025Z,5.70
2023-12-09T17:46:52.122Z,5.70
2023-12-09T17:49:21.586Z,5.70
2023-12-09T17:51:50.377Z,5.70
2023-12-09T17:54:17.646Z,5.70
2023-12-09T17:56:46.034Z,5.70
2023-12-09T17:59:14.358Z,5.70
2023-12-09T18:01:42.790Z,5.70
2023-12-09T18:04:13.489Z,5.70
2023-12-09T18:06:41.933Z,5.70
2023-12-09T18:09:10.256Z,5.70
2023-12-09T18:11:38.164Z,5.70
2023-12-09T18:14:06.255Z,5.70
2023-12-09T18:16:34.695Z,5.70
2023-12-09T18:19:03.350Z,5.70
2023-12-09T18:21:32.912Z,5.70
2023-12-09T18:24:01.167Z,5.70
2023-12-09T18:26:29.646Z,5.60
2023-12-09T18:28:58.515Z,5.70
2023-12-09T18:31:26.443Z,5.70
2023-12-09T18:33:55.001Z,5.60
2023-12-09T18:36:23.264Z,5.60
2023-12-09T18:38:52.963Z,5.60
2023-12-09T18:41:22.280Z,5.60
2023-12-09T18:43:50.951Z,5.60
2023-12-09T18:46:19.871Z,5.70
2023-12-09T18:48:48.192Z,5.60
2023-12-09T18:51:17.064Z,5.70
2023-12-09T18:53:45.218Z,5.60
2023-12-09T18:56:14.812Z,5.60
2023-12-09T18:58:42.977Z,5.70
2023-12-09T19:01:11.908Z,5.60
2023-12-09T19:03:40.401Z,5.60
2023-12-09T19:06:10.503Z,5.60
2023-12-09T19:08:39.684Z,5.60
2023-12-09T19:11:09.877Z,5.60
2023-12-09T19:13:40.810Z,5.70
2023-12-09T19:16:10.080Z,5.60
2023-12-09T19:18:38.123Z,5.60
2023-12-09T19:21:06.430Z,5.60
2023-12-09T19:23:34.690Z,5.60
2023-12-09T19:26:03.846Z,5.60
2023-12-09T19:28:32.370Z,5.60
2023-12-09T19:31:01.843Z,5.60
2023-12-09T19:33:30.122Z,5.60
2023-12-09T19:35:59.822Z,5.60
2023-12-09T19:38:28.110Z,5.60
2023-12-09T19:40:56.116Z,5.60
2023-12-09T19:43:24.186Z,5.60
2023-12-09T19:45:53.326Z,5.60
2023-12-09T19:48:23.719Z,5.60
2023-12-09T19:50:51.710Z,5.60
2023-12-09T19:53:20.035Z,5.60
2023-12-09T19:55:48.644Z,5.60
2023-12-09T19:58:20.215Z,5.60
2023-12-09T20:00:48.501Z,5.60
2023-12-09T20:03:16.802Z,5.60
2023-12-09T20:05:46.386Z,5.60
2023-12-09T20:08:14.266Z,5.60
2023-12-09T20:10:43.128Z,5.60
2023-12-09T20:13:11.212Z,5.60
2023-12-09T20:15:39.491Z,5.60
2023-12-09T20:18:11.107Z,5.60
2023-12-09T20:20:39.349Z,5.60
2023-12-09T20:23:09.106Z,5.60
2023-12-09T20:25:37.301Z,5.60
2023-12-09T20:28:07.800Z,5.60
2023-12-09T20:30:38.878Z,5.60
2023-12-09T20:33:08.196Z,5.70
2023-12-09T20:35:36.719Z,5.70
2023-12-09T20:38:06.576Z,5.70
2023-12-09T20:40:35.791Z,5.70
2023-12-09T20:43:03.743Z,5.70
2023-12-09T20:45:30.953Z,5.70
2023-12-09T20:47:59.477Z,5.70
2023-12-09T20:50:27.465Z,5.70
2023-12-09T20:52:56.395Z,5.70
2023-12-09T20:55:24.933Z,5.70
2023-12-09T20:57:54.580Z,5.70
2023-12-09T21:00:22.990Z,5.60
2023-12-09T21:02:51.218Z,5.70
2023-12-09T21:05:19.637Z,5.70
2023-12-09T21:07:48.642Z,5.70
2023-12-09T21:10:16.847Z,5.70
2023-12-09T21:12:45.390Z,5.70
2023-12-09T21:15:15.543Z,5.60
2023-12-09T21:17:43.498Z,5.70
2023-12-09T21:20:12.855Z,5.70
2023-12-09T21:22:40.867Z,5.70
2023-12-09T21:25:12.087Z,5.70
2023-12-09T21:27:40.845Z,5.70
2023-12-09T21:30:10.207Z,5.70
2023-12-09T21:32:40.271Z,5.70
2023-12-09T21:35:09.201Z,5.70
2023-12-09T21:37:37.742Z,5.60
2023-12-09T21:40:08.014Z,5.60
2023-12-09T21:42:36.070Z,5.70
2023-12-09T21:45:06.561Z,5.60
2023-12-09T21:47:37.510Z,5.60
2023-12-09T21:50:08.605Z,5.60
2023-12-09T21:52:36.864Z,5.50
2023-12-09T21:55:06.541Z,5.60
2023-12-09T21:57:36.560Z,5.60
2023-12-09T22:00:05.509Z,5.60
2023-12-09T22:02:33.509Z,5.60
2023-12-09T22:05:01.522Z,5.60
2023-12-09T22:07:31.036Z,5.60
2023-12-09T22:09:59.213Z,5.60
2023-12-09T22:12:27.386Z,5.60
2023-12-09T22:14:56.343Z,5.70
2023-12-09T22:17:24.254Z,5.70
2023-12-09T22:19:52.504Z,5.70
2023-12-09T22:22:20.869Z,5.70
2023-12-09T22:24:50.195Z,5.70
2023-12-09T22:27:18.956Z,5.70
2023-12-09T22:29:47.389Z,5.80
2023-12-09T22:32:15.578Z,5.80
2023-12-09T22:34:43.815Z,5.80
2023-12-09T22:37:12.065Z,5.80
2023-12-09T22:39:41.502Z,5.90
2023-12-09T22:42:10.879Z,5.90
2023-12-09T22:44:39.566Z,5.90
2023-12-09T22:47:07.854Z,6.00
2023-12-09T22:49:36.375Z,6.00
2023-12-09T22:52:05.196Z,6.10
2023-12-09T22:54:33.505Z,6.20
2023-12-09T22:57:02.324Z,6.20
2023-12-09T22:59:31.544Z,6.20
2023-12-09T23:01:59.991Z,6.20
2023-12-09T23:04:27.945Z,6.30
2023-12-09T23:06:59.081Z,6.30
2023-12-09T23:09:27.345Z,6.40
2023-12-09T23:11:55.966Z,6.40
2023-12-09T23:14:23.918Z,6.40
2023-12-09T23:16:53.236Z,6.40
2023-12-09T23:19:21.833Z,6.50
2023-12-09T23:21:50.165Z,6.40
2023-12-09T23:24:18.516Z,6.40
2023-12-09T23:26:46.716Z,6.50
2023-12-09T23:29:14.967Z,6.50
2023-12-09T23:31:43.273Z,6.50
2023-12-09T23:34:12.700Z,6.50
2023-12-09T23:36:40.828Z,6.40
2023-12-09T23:39:10.358Z,6.50
2023-12-09T23:41:38.546Z,6.50
2023-12-09T23:44:06.619Z,6.50
2023-12-09T23:46:34.585Z,6.50
2023-12-09T23:49:02.859Z,6.50
2023-12-09T23:51:32.406Z,6.50
2023-12-09T23:54:00.367Z,6.50
2023-12-09T23:56:28.258Z,6.50
2023-12-09T23:58:56.193Z,6.50
